Time;durP1;ratioP1;P1;durP2;ratioP2;P2;SDS_P1;SDS_P2;PMS_P1;PMS_P2;Temp;Humidity;BMP_temperature;BMP_pressure;BME280_temperature;BME280_humidity;BME280_pressure;Samples;Min_cycle;Max_cycle;Signal;HPM_P1;HPM_P2
2021/09/16 00:04:01;;;;;;;0.00;0.00;;;17.10;99.90;;;;;;10296064;28;20113;-57
2021/09/16 00:09:03;;;;;;;0.00;0.00;;;17.10;99.90;;;;;;10303416;28;20105;-58
2021/09/16 00:14:04;;;;;;;0.00;0.00;;;17.00;99.90;;;;;;10298996;28;20116;-57
2021/09/16 00:19:06;;;;;;;0.00;0.00;;;17.00;99.90;;;;;;10303475;28;20066;-57
2021/09/16 00:24:08;;;;;;;0.00;0.00;;;17.00;99.90;;;;;;10299387;28;20124;-58
2021/09/16 00:29:10;;;;;;;0.00;0.00;;;17.00;99.90;;;;;;10302361;28;20116;-57
2021/09/16 00:34:11;;;;;;;0.00;0.00;;;17.00;99.90;;;;;;10300807;28;20055;-57
2021/09/16 00:39:13;;;;;;;0.00;0.00;;;17.00;99.90;;;;;;10296822;28;20054;-57
2021/09/16 00:44:15;;;;;;;0.00;0.00;;;17.00;99.90;;;;;;10298053;28;20074;-58
2021/09/16 00:49:16;;;;;;;0.00;0.00;;;17.10;99.90;;;;;;10303407;28;20100;-57
2021/09/16 00:54:20;;;;;;;0.00;0.00;;;17.00;99.90;;;;;;10294845;28;20046;-58
2021/09/16 00:59:23;;;;;;;0.00;0.00;;;17.00;99.90;;;;;;10303249;28;20050;-57
2021/09/16 01:04:26;;;;;;;0.00;0.00;;;17.00;99.90;;;;;;10296950;28;20481;-57
2021/09/16 01:09:30;;;;;;;0.00;0.00;;;17.00;99.90;;;;;;10301320;28;20485;-58
2021/09/16 01:14:32;;;;;;;0.00;0.00;;;17.00;99.90;;;;;;10299677;28;20126;-57
2021/09/16 01:19:34;;;;;;;0.00;0.00;;;16.90;99.90;;;;;;10298423;28;20050;-57
2021/09/16 01:24:36;;;;;;;0.10;0.00;;;16.90;99.90;;;;;;10302376;28;20038;-57
2021/09/16 01:29:37;;;;;;;0.00;0.00;;;16.70;99.90;;;;;;10296758;28;20601;-57
2021/09/16 01:34:39;;;;;;;0.00;0.00;;;16.70;99.90;;;;;;10298517;28;20125;-58
2021/09/16 01:39:41;;;;;;;0.00;0.00;;;16.50;99.90;;;;;;10301067;28;20128;-58
2021/09/16 01:44:46;;;;;;;0.00;0.00;;;16.60;99.90;;;;;;10292210;28;20070;-59
2021/09/16 01:49:47;;;;;;;0.00;0.00;;;16.60;99.90;;;;;;10293377;28;20116;-57
2021/09/16 01:54:49;;;;;;;0.00;0.00;;;16.70;99.90;;;;;;10310870;28;20050;-59
2021/09/16 01:59:51;;;;;;;0.00;0.00;;;16.70;99.90;;;;;;10300434;28;20046;-58
2021/09/16 02:04:52;;;;;;;0.00;0.00;;;16.70;99.90;;;;;;10299919;28;20776;-57
2021/09/16 02:09:54;;;;;;;0.00;0.00;;;16.80;99.90;;;;;;10298764;28;20117;-58
2021/09/16 02:14:56;;;;;;;0.00;0.00;;;16.70;99.90;;;;;;10296289;28;20081;-57
2021/09/16 02:19:57;;;;;;;0.00;0.00;;;16.70;99.90;;;;;;10294601;28;20097;-57
2021/09/16 02:24:59;;;;;;;0.00;0.00;;;16.70;99.90;;;;;;10294668;28;20082;-58
2021/09/16 02:30:00;;;;;;;0.00;0.00;;;16.60;99.90;;;;;;10297653;28;20139;-59
2021/09/16 02:35:02;;;;;;;0.00;0.00;;;16.70;99.90;;;;;;10297545;28;20441;-57
2021/09/16 02:40:06;;;;;;;0.00;0.00;;;16.60;99.90;;;;;;10297886;28;20086;-58
2021/09/16 02:45:08;;;;;;;0.00;0.00;;;16.70;99.90;;;;;;10297400;28;20109;-57
2021/09/16 02:50:11;;;;;;;0.00;0.00;;;16.70;99.90;;;;;;10293581;28;20148;-58
2021/09/16 02:55:14;;;;;;;0.00;0.00;;;16.70;99.90;;;;;;10300856;28;20089;-59
2021/09/16 03:00:16;;;;;;;0.00;0.00;;;16.70;99.90;;;;;;10306263;28;20117;-59
2021/09/16 03:05:18;;;;;;;0.00;0.00;;;16.70;99.90;;;;;;10305071;28;20067;-58
2021/09/16 03:10:24;;;;;;;0.00;0.00;;;16.70;99.90;;;;;;10308354;28;20054;-59
2021/09/16 03:15:25;;;;;;;0.00;0.00;;;16.70;99.90;;;;;;10306586;28;20055;-59
2021/09/16 03:20:28;;;;;;;0.00;0.00;;;16.70;99.90;;;;;;10307732;28;20761;-60
2021/09/16 03:25:30;;;;;;;0.00;0.00;;;16.70;99.90;;;;;;10301797;28;20108;-59
2021/09/16 03:30:31;;;;;;;0.00;0.00;;;16.60;99.90;;;;;;10300468;28;20096;-59
2021/09/16 03:35:33;;;;;;;0.00;0.00;;;16.60;99.90;;;;;;10300802;28;20488;-59
2021/09/16 03:40:35;;;;;;;0.00;0.00;;;16.50;99.90;;;;;;10302468;28;20054;-59
2021/09/16 03:45:36;;;;;;;0.00;0.00;;;16.50;99.90;;;;;;10302281;28;20412;-59
2021/09/16 03:50:38;;;;;;;0.00;0.00;;;16.40;99.90;;;;;;10300595;28;20055;-60
2021/09/16 03:55:40;;;;;;;0.00;0.00;;;16.30;99.90;;;;;;10300677;28;20082;-59
2021/09/16 04:00:41;;;;;;;0.00;0.00;;;16.20;99.90;;;;;;10302121;28;20050;-59
2021/09/16 04:05:43;;;;;;;0.00;0.00;;;16.20;99.90;;;;;;10301461;28;20117;-60
2021/09/16 04:10:45;;;;;;;0.00;0.00;;;16.20;99.90;;;;;;10301974;28;20205;-58
2021/09/16 04:15:46;;;;;;;0.00;0.00;;;16.10;99.90;;;;;;10299285;28;20109;-59
2021/09/16 04:20:48;;;;;;;0.00;0.00;;;16.10;99.90;;;;;;10299970;28;20082;-58
2021/09/16 04:25:50;;;;;;;0.00;0.00;;;16.10;99.90;;;;;;10302287;28;20390;-59
2021/09/16 04:30:51;;;;;;;0.00;0.00;;;16.10;99.90;;;;;;10299863;28;20136;-58
2021/09/16 04:35:53;;;;;;;0.00;0.00;;;16.10;99.90;;;;;;10300337;28;20140;-58
2021/09/16 04:40:54;;;;;;;0.00;0.00;;;16.00;99.90;;;;;;10298986;28;20054;-58
2021/09/16 04:45:56;;;;;;;0.00;0.00;;;16.00;99.90;;;;;;10299304;28;20077;-60
2021/09/16 04:50:58;;;;;;;0.00;0.00;;;16.00;99.90;;;;;;10299384;28;20050;-59
2021/09/16 04:56:00;;;;;;;0.00;0.00;;;16.00;99.90;;;;;;10299010;28;20109;-59
2021/09/16 05:01:01;;;;;;;0.00;0.00;;;16.00;99.90;;;;;;10302565;28;20100;-60
2021/09/16 05:06:03;;;;;;;0.00;0.00;;;15.90;99.90;;;;;;10300894;28;20066;-61
2021/09/16 05:11:05;;;;;;;0.00;0.00;;;15.90;99.90;;;;;;10300726;28;20112;-61
2021/09/16 05:16:07;;;;;;;0.00;0.00;;;15.90;99.90;;;;;;10299239;28;20132;-61
2021/09/16 05:21:09;;;;;;;0.00;0.00;;;15.80;99.90;;;;;;10300810;28;20493;-60
2021/09/16 05:26:11;;;;;;;0.00;0.00;;;15.80;99.90;;;;;;10305881;28;20124;-60
2021/09/16 05:31:13;;;;;;;0.00;0.00;;;15.80;99.90;;;;;;10296420;28;20054;-61
2021/09/16 05:36:14;;;;;;;0.00;0.00;;;15.80;99.90;;;;;;10296190;28;20058;-61
2021/09/16 05:41:16;;;;;;;0.00;0.00;;;15.70;99.90;;;;;;10300222;28;20062;-61
2021/09/16 05:46:18;;;;;;;0.00;0.00;;;15.80;99.90;;;;;;10296022;28;20109;-61
2021/09/16 05:51:19;;;;;;;0.00;0.00;;;15.80;99.90;;;;;;10298547;28;20374;-61
2021/09/16 05:56:21;;;;;;;0.00;0.00;;;15.80;99.90;;;;;;10297644;28;20120;-61
2021/09/16 06:01:23;;;;;;;0.15;0.10;;;15.80;99.90;;;;;;10294474;28;20074;-60
2021/09/16 06:06:24;;;;;;;0.00;0.00;;;15.70;99.90;;;;;;10298754;28;20055;-60
2021/09/16 06:11:26;;;;;;;0.00;0.00;;;15.70;99.90;;;;;;10301466;28;20139;-61
2021/09/16 06:16:28;;;;;;;0.00;0.00;;;15.60;99.90;;;;;;10298098;28;20504;-61
2021/09/16 06:21:29;;;;;;;0.00;0.00;;;15.70;99.90;;;;;;10296365;28;20053;-60
2021/09/16 06:26:31;;;;;;;4.68;2.65;;;15.60;99.90;;;;;;10299214;28;20085;-61
2021/09/16 06:31:33;;;;;;;5.15;3.03;;;15.60;99.90;;;;;;10301477;28;20050;-60
2021/09/16 06:36:35;;;;;;;8.48;4.18;;;14.90;99.90;;;;;;10301868;28;20054;-60
2021/09/16 06:41:36;;;;;;;9.30;5.47;;;15.70;99.90;;;;;;10296744;28;20058;-60
2021/09/16 06:46:38;;;;;;;10.50;6.05;;;15.70;99.90;;;;;;10304355;28;20140;-60
2021/09/16 06:51:40;;;;;;;11.13;6.05;;;15.50;99.90;;;;;;10308740;28;20062;-64
2021/09/16 06:56:41;;;;;;;11.95;6.15;;;15.50;99.90;;;;;;10307781;28;20047;-64
2021/09/16 07:01:43;;;;;;;8.05;5.55;;;15.30;99.90;;;;;;10304025;28;20046;-61
2021/09/16 07:06:45;;;;;;;8.43;4.35;;;15.30;99.90;;;;;;10303936;28;20105;-60
2021/09/16 07:11:47;;;;;;;8.98;4.60;;;15.30;99.90;;;;;;10307218;28;20085;-60
2021/09/16 07:16:48;;;;;;;5.68;2.97;;;15.10;99.90;;;;;;10306258;28;20485;-60
2021/09/16 07:21:51;;;;;;;6.50;3.78;;;15.10;99.90;;;;;;10303751;28;20109;-60
2021/09/16 07:26:53;;;;;;;7.72;3.25;;;15.10;99.90;;;;;;10308223;28;20436;-61
2021/09/16 07:31:54;;;;;;;7.45;3.78;;;15.00;99.90;;;;;;10302718;28;20074;-60
2021/09/16 07:36:56;;;;;;;6.45;3.50;;;15.10;99.90;;;;;;10302243;28;20270;-60
2021/09/16 07:41:58;;;;;;;6.70;3.78;;;15.20;99.90;;;;;;10304303;28;20070;-60
2021/09/16 07:47:00;;;;;;;7.07;3.92;;;15.20;99.90;;;;;;10303209;28;20109;-61
2021/09/16 07:52:02;;;;;;;4.38;3.30;;;15.10;99.90;;;;;;10304197;28;20053;-60
2021/09/16 07:57:04;;;;;;;5.93;2.83;;;15.20;99.90;;;;;;10302010;28;20121;-60
2021/09/16 08:02:06;;;;;;;4.57;3.20;;;15.10;99.90;;;;;;10301654;28;20054;-60
2021/09/16 08:07:08;;;;;;;3.65;2.80;;;15.20;99.90;;;;;;10301374;28;20397;-61
2021/09/16 08:12:10;;;;;;;6.47;3.75;;;15.30;99.90;;;;;;10307368;28;20180;-61
2021/09/16 08:17:11;;;;;;;5.00;3.63;;;15.40;99.90;;;;;;10300523;28;20088;-60
2021/09/16 08:22:13;;;;;;;3.90;2.42;;;15.50;99.90;;;;;;10301976;28;20101;-60
2021/09/16 08:27:15;;;;;;;3.70;1.50;;;15.70;99.90;;;;;;10301797;28;20038;-60
2021/09/16 08:32:18;;;;;;;4.35;1.40;;;15.80;99.90;;;;;;10301116;28;20050;-61
2021/09/16 08:37:19;;;;;;;5.20;0.90;;;16.00;99.90;;;;;;10300995;28;20112;-61
2021/09/16 08:42:26;;;;;;;1.88;0.95;;;16.20;99.90;;;;;;10301871;28;20108;-61
2021/09/16 08:47:29;;;;;;;3.40;0.75;;;16.10;99.90;;;;;;10300315;28;20056;-61
2021/09/16 08:52:36;;;;;;;1.08;0.50;;;16.20;99.90;;;;;;10298545;28;20537;-61
2021/09/16 08:57:41;;;;;;;4.07;0.40;;;16.30;99.90;;;;;;10296018;28;20046;-61
2021/09/16 09:02:47;;;;;;;1.20;0.40;;;16.50;99.90;;;;;;10301001;28;20567;-61
2021/09/16 09:07:51;;;;;;;0.40;0.22;;;16.70;99.90;;;;;;10320922;28;20470;-60
2021/09/16 09:12:55;;;;;;;2.67;0.65;;;16.80;99.90;;;;;;10299780;28;20086;-60
2021/09/16 09:18:12;;;;;;;3.33;0.30;;;16.80;99.90;;;;;;10299947;28;20813;-61
2021/09/16 09:23:21;;;;;;;1.13;0.30;;;16.50;99.90;;;;;;10297286;28;20058;-60
2021/09/16 09:28:26;;;;;;;1.00;0.40;;;16.60;99.90;;;;;;10299266;28;20054;-61
2021/09/16 09:33:31;;;;;;;3.53;0.90;;;16.70;99.90;;;;;;10298704;28;20050;-62
2021/09/16 09:38:45;;;;;;;2.65;0.70;;;16.90;99.90;;;;;;10301274;28;20603;-62
2021/09/16 09:43:47;;;;;;;3.10;0.60;;;16.70;99.90;;;;;;10296118;28;20105;-61
2021/09/16 09:49:01;;;;;;;3.00;0.50;;;17.10;99.90;;;;;;10295078;28;20082;-60
2021/09/16 09:54:21;;;;;;;1.00;0.60;;;17.50;99.90;;;;;;10291452;28;20206;-61
2021/09/16 09:59:23;;;;;;;2.72;1.45;;;17.40;99.90;;;;;;10293951;28;20437;-62
2021/09/16 10:04:27;;;;;;;1.50;0.60;;;17.60;99.90;;;;;;10295339;28;20072;-61
2021/09/16 10:09:29;;;;;;;3.03;0.80;;;17.30;99.90;;;;;;10288043;28;20120;-62
2021/09/16 10:14:30;;;;;;;3.33;1.00;;;16.90;99.90;;;;;;10289424;28;20046;-62
2021/09/16 10:19:32;;;;;;;2.15;0.88;;;16.90;99.90;;;;;;10293790;28;20074;-62
2021/09/16 10:24:35;;;;;;;3.42;0.60;;;16.90;99.90;;;;;;10293279;28;20070;-62
2021/09/16 10:29:37;;;;;;;3.63;0.85;;;17.10;99.90;;;;;;10309964;28;20075;-61
2021/09/16 10:34:48;;;;;;;3.03;0.80;;;17.10;99.90;;;;;;10301776;28;20106;-62
2021/09/16 10:39:50;;;;;;;1.23;0.90;;;17.20;99.90;;;;;;10298123;28;20055;-62
2021/09/16 10:45:08;;;;;;;4.82;1.20;;;17.10;99.90;;;;;;10302023;28;20050;-62
2021/09/16 10:50:20;;;;;;;2.13;1.20;;;17.00;99.90;;;;;;10294873;28;20720;-59
2021/09/16 10:55:38;;;;;;;1.80;1.00;;;17.00;99.90;;;;;;10295741;28;20050;-63
2021/09/16 11:00:39;;;;;;;3.30;1.13;;;17.00;99.90;;;;;;10294366;28;20100;-60
2021/09/16 11:05:50;;;;;;;2.67;1.02;;;17.10;99.90;;;;;;10300497;28;20050;-59
2021/09/16 11:10:56;;;;;;;2.72;1.00;;;17.40;99.90;;;;;;10295319;28;20046;-60
2021/09/16 11:15:58;;;;;;;2.45;1.20;;;17.60;99.90;;;;;;10300024;28;20046;-60
2021/09/16 11:21:20;;;;;;;1.33;0.80;;;17.70;99.90;;;;;;10306588;28;20452;-60
2021/09/16 11:26:23;;;;;;;1.00;0.70;;;17.90;99.90;;;;;;10303981;28;20097;-59
2021/09/16 11:31:25;;;;;;;1.20;0.68;;;17.90;99.90;;;;;;10301729;28;20046;-60
2021/09/16 11:36:26;;;;;;;1.75;0.85;;;17.70;99.90;;;;;;10302832;28;20137;-59
2021/09/16 11:41:28;;;;;;;3.22;0.55;;;17.70;99.90;;;;;;10300762;28;20077;-59
2021/09/16 11:46:31;;;;;;;1.40;0.60;;;18.10;99.90;;;;;;10305186;28;20497;-59
2021/09/16 11:51:33;;;;;;;0.60;0.50;;;18.30;99.10;;;;;;10308115;28;20062;-60
2021/09/16 11:56:35;;;;;;;1.30;0.40;;;18.10;98.40;;;;;;10300503;28;20046;-60
2021/09/16 12:01:36;;;;;;;1.60;0.80;;;18.00;97.80;;;;;;10301437;28;20054;-60
2021/09/16 12:06:39;;;;;;;4.15;0.32;;;18.10;98.50;;;;;;10302600;28;20046;-60
2021/09/16 12:11:41;;;;;;;3.03;0.63;;;18.20;97.90;;;;;;10299819;28;27867;-61
2021/09/16 12:16:45;;;;;;;1.10;0.40;;;18.00;97.40;;;;;;10298129;28;20050;-61
2021/09/16 12:21:52;;;;;;;1.73;0.40;;;18.00;97.80;;;;;;10305085;28;20137;-62
2021/09/16 12:26:56;;;;;;;0.70;0.32;;;18.20;98.20;;;;;;10301067;28;20042;-61
2021/09/16 12:32:18;;;;;;;0.43;0.40;;;18.60;96.50;;;;;;10307606;28;20085;-62
2021/09/16 12:37:19;;;;;;;1.15;0.40;;;18.50;97.50;;;;;;10301476;28;20058;-62
2021/09/16 12:42:29;;;;;;;1.50;0.35;;;18.60;97.30;;;;;;10299195;28;20078;-61
2021/09/16 12:47:30;;;;;;;0.80;0.40;;;18.50;97.40;;;;;;10299970;28;20104;-62
2021/09/16 12:52:33;;;;;;;1.30;0.30;;;18.20;97.50;;;;;;10316344;28;20046;-61
2021/09/16 12:57:37;;;;;;;1.25;0.30;;;18.50;97.60;;;;;;10298066;28;20576;-61
2021/09/16 13:02:45;;;;;;;1.33;0.30;;;18.80;98.00;;;;;;10295428;28;20046;-61
2021/09/16 13:08:09;;;;;;;0.88;0.20;;;18.70;97.60;;;;;;10298695;28;20047;-61
2021/09/16 13:13:16;;;;;;;0.80;0.30;;;18.70;98.30;;;;;;10300928;28;20058;-61
2021/09/16 13:18:18;;;;;;;0.43;0.30;;;18.80;97.50;;;;;;10299878;28;20441;-61
2021/09/16 13:23:20;;;;;;;1.17;0.25;;;18.60;98.20;;;;;;10301347;28;20613;-61
2021/09/16 13:28:21;;;;;;;0.30;0.30;;;18.90;98.30;;;;;;10303543;28;20054;-61
2021/09/16 13:33:23;;;;;;;0.20;0.20;;;18.90;97.90;;;;;;10298351;28;20456;-61
2021/09/16 13:38:25;;;;;;;0.20;0.20;;;18.70;98.20;;;;;;10301585;28;20509;-61
2021/09/16 13:43:26;;;;;;;2.05;0.30;;;18.80;98.00;;;;;;10303120;28;20046;-62
2021/09/16 13:48:29;;;;;;;0.63;0.32;;;18.80;97.90;;;;;;10297019;28;20050;-61
2021/09/16 13:53:30;;;;;;;1.27;0.30;;;19.20;98.10;;;;;;10295826;28;20051;-61
2021/09/16 13:58:32;;;;;;;1.90;0.40;;;19.20;96.50;;;;;;10301243;28;20038;-61
2021/09/16 14:03:34;;;;;;;0.50;0.30;;;19.20;96.40;;;;;;10297903;28;20058;-61
2021/09/16 14:08:36;;;;;;;1.90;0.60;;;19.80;95.40;;;;;;10297560;28;20061;-61
2021/09/16 14:13:45;;;;;;;1.95;0.30;;;19.90;96.30;;;;;;10300870;28;20577;-61
2021/09/16 14:18:49;;;;;;;3.63;0.20;;;19.70;96.40;;;;;;10300107;28;20054;-61
2021/09/16 14:23:51;;;;;;;0.50;0.40;;;19.50;95.40;;;;;;10297177;28;20110;-61
2021/09/16 14:28:53;;;;;;;1.13;0.30;;;19.40;95.30;;;;;;10292686;28;20136;-61
2021/09/16 14:33:55;;;;;;;1.05;0.30;;;19.30;95.80;;;;;;10300822;28;20077;-62
2021/09/16 14:38:56;;;;;;;0.65;0.20;;;19.20;94.60;;;;;;10287552;28;20073;-62
2021/09/16 14:43:58;;;;;;;0.52;0.30;;;19.20;94.80;;;;;;10297555;28;20109;-62
2021/09/16 14:49:00;;;;;;;2.90;0.28;;;19.40;95.20;;;;;;10303492;28;20051;-62
2021/09/16 14:54:02;;;;;;;1.38;0.30;;;19.20;94.80;;;;;;10303922;28;20050;-62
2021/09/16 14:59:03;;;;;;;1.05;0.30;;;19.40;95.10;;;;;;10302026;28;20074;-63
2021/09/16 15:04:05;;;;;;;0.40;0.20;;;19.20;94.80;;;;;;10305047;28;20070;-62
2021/09/16 15:09:07;;;;;;;1.48;0.32;;;19.10;94.50;;;;;;10307606;28;20057;-62
2021/09/16 15:14:10;;;;;;;1.35;0.38;;;19.20;95.00;;;;;;10305226;28;20075;-62
2021/09/16 15:19:11;;;;;;;0.40;0.30;;;19.20;95.20;;;;;;10300813;28;20109;-62
2021/09/16 15:24:13;;;;;;;0.30;0.30;;;19.10;94.70;;;;;;10304772;28;20054;-61
2021/09/16 15:29:16;;;;;;;1.25;1.00;;;19.20;94.40;;;;;;10307136;28;20074;-62
2021/09/16 15:34:22;;;;;;;1.67;0.70;;;19.20;94.90;;;;;;10303884;28;20108;-61
2021/09/16 15:39:24;;;;;;;0.77;0.50;;;19.20;95.30;;;;;;10304849;28;20070;-61
2021/09/16 15:44:26;;;;;;;2.03;0.65;;;19.00;94.20;;;;;;10302925;28;20572;-62
2021/09/16 15:49:31;;;;;;;1.20;0.80;;;18.90;94.10;;;;;;10301337;28;20113;-61
2021/09/16 15:54:32;;;;;;;0.70;0.52;;;18.90;94.50;;;;;;10302300;28;20054;-62
2021/09/16 15:59:34;;;;;;;3.50;1.35;;;18.80;94.50;;;;;;10303163;28;20505;-63
2021/09/16 16:04:38;;;;;;;0.80;0.73;;;18.80;94.70;;;;;;10300872;28;20078;-62
2021/09/16 16:09:40;;;;;;;1.13;0.60;;;18.70;94.90;;;;;;10303570;28;20066;-62
2021/09/16 16:14:42;;;;;;;2.00;0.65;;;18.70;94.70;;;;;;10298236;28;20054;-63
2021/09/16 16:19:43;;;;;;;2.22;0.60;;;18.60;95.50;;;;;;10303363;28;20100;-60
2021/09/16 16:24:45;;;;;;;1.90;0.70;;;18.60;95.80;;;;;;10298874;28;20453;-60
2021/09/16 16:29:47;;;;;;;3.28;0.70;;;18.60;96.50;;;;;;10302346;28;20148;-61
2021/09/16 16:34:48;;;;;;;2.88;0.60;;;18.50;97.10;;;;;;10304549;28;20128;-59
2021/09/16 16:39:50;;;;;;;2.97;1.10;;;18.50;97.20;;;;;;10302242;28;20500;-61
2021/09/16 16:44:52;;;;;;;1.35;0.70;;;18.40;97.60;;;;;;10300024;28;20545;-62
2021/09/16 16:49:54;;;;;;;3.20;1.10;;;18.40;98.10;;;;;;10296834;28;20077;-61
2021/09/16 16:54:55;;;;;;;1.58;0.70;;;18.30;98.80;;;;;;10302399;28;20080;-62
2021/09/16 16:59:57;;;;;;;4.95;0.68;;;18.20;98.70;;;;;;10298923;28;20054;-64
2021/09/16 17:04:58;;;;;;;2.72;0.90;;;18.30;97.60;;;;;;10298100;28;20073;-64
2021/09/16 17:10:00;;;;;;;4.15;0.82;;;18.20;97.40;;;;;;10300114;28;20058;-65
2021/09/16 17:15:04;;;;;;;3.17;0.75;;;18.20;97.50;;;;;;10296840;28;20806;-64
2021/09/16 17:20:08;;;;;;;3.67;0.95;;;18.20;97.70;;;;;;10303183;28;20773;-63
2021/09/16 17:25:09;;;;;;;3.72;0.80;;;18.20;97.70;;;;;;10300632;28;20132;-64
2021/09/16 17:30:12;;;;;;;2.08;0.60;;;18.10;97.70;;;;;;10302334;28;20450;-65
2021/09/16 17:35:13;;;;;;;2.28;0.70;;;18.10;98.00;;;;;;10299992;28;20123;-64
2021/09/16 17:40:17;;;;;;;6.68;1.15;;;18.10;98.00;;;;;;10301050;28;20478;-63
2021/09/16 17:45:19;;;;;;;3.38;0.60;;;18.10;98.50;;;;;;10301132;28;20124;-64
2021/09/16 17:50:21;;;;;;;3.50;0.90;;;18.00;98.70;;;;;;10303524;28;20096;-61
2021/09/16 17:55:23;;;;;;;2.22;0.60;;;18.00;99.10;;;;;;10294123;28;20046;-60
2021/09/16 18:00:24;;;;;;;3.92;1.35;;;17.90;99.80;;;;;;10301382;28;20132;-61
2021/09/16 18:05:26;;;;;;;2.47;0.90;;;17.80;99.80;;;;;;10297698;28;20109;-62
2021/09/16 18:10:28;;;;;;;2.45;0.63;;;17.80;99.90;;;;;;10301689;28;20105;-62
2021/09/16 18:15:30;;;;;;;1.17;0.50;;;17.80;99.00;;;;;;10299081;28;20046;-61
2021/09/16 18:20:32;;;;;;;2.08;0.93;;;17.70;99.10;;;;;;10298068;28;20108;-62
2021/09/16 18:25:34;;;;;;;1.38;0.77;;;17.60;99.60;;;;;;10301102;28;20108;-62
2021/09/16 18:30:36;;;;;;;1.75;0.80;;;17.60;99.90;;;;;;10307218;28;20136;-62
2021/09/16 18:35:38;;;;;;;2.70;1.10;;;17.60;99.60;;;;;;10306632;28;20304;-62
2021/09/16 18:40:40;;;;;;;2.03;1.00;;;17.60;99.80;;;;;;10306307;28;20058;-63
2021/09/16 18:45:42;;;;;;;1.00;0.90;;;17.60;99.90;;;;;;10305179;28;20563;-62
2021/09/16 18:50:44;;;;;;;2.45;0.80;;;17.50;99.90;;;;;;10306960;28;20125;-62
2021/09/16 18:55:45;;;;;;;2.85;1.27;;;17.40;99.90;;;;;;10309165;28;20062;-62
2021/09/16 19:00:49;;;;;;;1.45;0.68;;;17.40;99.90;;;;;;10304700;28;20058;-60
2021/09/16 19:05:51;;;;;;;3.10;0.80;;;17.30;99.90;;;;;;10305798;28;20117;-60
2021/09/16 19:10:53;;;;;;;3.80;0.70;;;17.30;99.90;;;;;;10303909;28;20555;-60
2021/09/16 19:15:55;;;;;;;2.15;1.58;;;17.30;99.90;;;;;;10302334;28;20054;-60
2021/09/16 19:20:57;;;;;;;4.10;2.22;;;17.30;99.90;;;;;;10305192;28;20050;-61
2021/09/16 19:26:03;;;;;;;3.00;1.00;;;17.30;99.90;;;;;;10308583;28;20062;-61
2021/09/16 19:31:04;;;;;;;4.97;1.27;;;17.30;99.90;;;;;;10302732;28;20116;-61
2021/09/16 19:36:06;;;;;;;3.70;1.40;;;17.20;99.90;;;;;;10305740;28;20050;-61
2021/09/16 19:41:08;;;;;;;2.40;1.70;;;17.10;99.90;;;;;;10306967;28;20085;-61
2021/09/16 19:46:09;;;;;;;3.17;1.00;;;17.00;99.90;;;;;;10303092;28;20082;-61
2021/09/16 19:51:11;;;;;;;1.35;1.00;;;17.00;99.90;;;;;;10314639;28;20046;-61
2021/09/16 19:56:15;;;;;;;2.00;1.10;;;17.00;99.90;;;;;;10304680;28;20046;-62
2021/09/16 20:01:16;;;;;;;1.70;1.13;;;17.00;99.90;;;;;;10301481;28;20047;-62
2021/09/16 20:06:18;;;;;;;4.63;1.10;;;17.00;99.90;;;;;;10303476;28;20057;-62
2021/09/16 20:11:21;;;;;;;4.10;1.33;;;16.90;99.90;;;;;;10304135;28;20112;-62
2021/09/16 20:16:22;;;;;;;1.80;1.00;;;16.90;99.90;;;;;;10301241;28;20050;-62
2021/09/16 20:21:24;;;;;;;3.53;1.20;;;16.90;99.90;;;;;;10305345;28;20049;-62
2021/09/16 20:26:26;;;;;;;3.70;0.90;;;16.90;99.90;;;;;;10302630;28;20874;-61
2021/09/16 20:31:28;;;;;;;6.53;0.90;;;16.90;99.90;;;;;;10300640;28;20066;-62
2021/09/16 20:36:29;;;;;;;3.08;1.15;;;16.90;99.90;;;;;;10301835;28;20061;-62
2021/09/16 20:41:32;;;;;;;5.05;1.38;;;16.90;99.90;;;;;;10301943;28;20054;-61
2021/09/16 20:46:33;;;;;;;3.80;1.17;;;16.80;99.90;;;;;;10299763;28;20437;-61
2021/09/16 20:51:35;;;;;;;2.63;1.20;;;16.70;99.90;;;;;;10299718;28;20082;-62
2021/09/16 20:56:37;;;;;;;3.10;1.25;;;16.70;99.90;;;;;;10303292;28;20101;-61
2021/09/16 21:01:39;;;;;;;2.85;1.30;;;16.70;99.90;;;;;;10299876;28;20098;-61
2021/09/16 21:06:40;;;;;;;2.88;1.17;;;16.70;99.90;;;;;;10298374;28;20045;-58
2021/09/16 21:11:42;;;;;;;1.88;0.98;;;16.70;99.90;;;;;;10305711;28;20093;-58
2021/09/16 21:16:44;;;;;;;1.08;0.90;;;16.60;99.90;;;;;;10287328;28;20097;-61
2021/09/16 21:21:45;;;;;;;1.33;1.00;;;16.60;99.90;;;;;;10308203;28;20058;-61
2021/09/16 21:26:48;;;;;;;2.15;1.45;;;16.50;99.90;;;;;;10288647;28;20157;-61
2021/09/16 21:31:49;;;;;;;3.33;1.10;;;16.50;99.90;;;;;;10295000;28;20116;-61
2021/09/16 21:36:51;;;;;;;3.17;1.35;;;16.50;99.90;;;;;;10295435;28;20116;-61
2021/09/16 21:41:53;;;;;;;2.45;1.17;;;16.40;99.90;;;;;;10300579;28;20035;-61
2021/09/16 21:46:56;;;;;;;4.03;1.40;;;16.30;99.90;;;;;;10295178;28;20061;-61
2021/09/16 21:51:58;;;;;;;4.00;1.23;;;16.20;99.90;;;;;;10293404;28;20046;-60
2021/09/16 21:57:00;;;;;;;4.35;1.40;;;16.20;99.90;;;;;;10293779;28;20050;-61
2021/09/16 22:02:02;;;;;;;4.03;1.23;;;16.10;99.90;;;;;;10297252;28;20050;-61
2021/09/16 22:07:04;;;;;;;3.72;1.10;;;16.00;99.90;;;;;;10296921;28;20074;-61
2021/09/16 22:12:06;;;;;;;2.75;1.08;;;16.00;99.90;;;;;;10301057;28;20097;-60
2021/09/16 22:17:07;;;;;;;3.85;1.23;;;15.80;99.90;;;;;;10299737;28;20050;-61
2021/09/16 22:22:09;;;;;;;2.88;1.63;;;15.70;99.90;;;;;;10296059;28;20406;-61
2021/09/16 22:27:13;;;;;;;3.55;1.55;;;15.60;99.90;;;;;;10294762;28;20082;-61
2021/09/16 22:32:15;;;;;;;4.97;2.13;;;15.50;99.90;;;;;;10301381;28;20424;-61
2021/09/16 22:37:17;;;;;;;10.25;1.75;;;15.40;99.90;;;;;;10294926;28;20054;-61
2021/09/16 22:42:18;;;;;;;5.47;1.83;;;15.20;99.90;;;;;;10297361;28;20066;-61
2021/09/16 22:47:20;;;;;;;3.78;1.85;;;15.10;99.90;;;;;;10296143;28;20042;-61
2021/09/16 22:52:22;;;;;;;3.50;2.05;;;14.90;99.90;;;;;;10296626;28;20109;-61
2021/09/16 22:57:23;;;;;;;3.45;1.50;;;14.80;99.90;;;;;;10292966;28;20117;-61
2021/09/16 23:02:25;;;;;;;5.40;1.90;;;14.60;99.90;;;;;;10296632;28;20047;-61
2021/09/16 23:07:27;;;;;;;4.30;2.42;;;14.50;99.90;;;;;;10299028;28;20046;-60
2021/09/16 23:12:30;;;;;;;6.03;2.28;;;14.50;99.90;;;;;;10302725;28;20070;-61
2021/09/16 23:17:32;;;;;;;6.50;1.80;;;14.40;99.90;;;;;;10303686;28;20065;-61
2021/09/16 23:22:34;;;;;;;5.32;2.08;;;14.30;99.90;;;;;;10305956;28;20125;-61
2021/09/16 23:27:37;;;;;;;2.58;2.05;;;14.20;99.90;;;;;;10300196;28;20125;-60
2021/09/16 23:32:39;;;;;;;3.45;2.88;;;14.10;99.90;;;;;;10301746;28;20077;-61
2021/09/16 23:37:40;;;;;;;3.42;2.17;;;14.10;99.90;;;;;;10302994;28;20587;-61
2021/09/16 23:42:42;;;;;;;3.95;2.22;;;13.90;99.90;;;;;;10303696;28;20074;-61
2021/09/16 23:47:44;;;;;;;3.47;2.42;;;13.90;99.90;;;;;;10304712;28;20073;-61
2021/09/16 23:52:46;;;;;;;9.25;2.85;;;13.80;99.90;;;;;;10296604;28;20109;-61
2021/09/16 23:57:47;;;;;;;4.18;2.53;;;13.70;99.90;;;;;;10305162;28;20113;-61
